KLOZ

London-Corbin Arpt-Magee Field Airport

London, Kentucky, USA
KLOZ 261247Z 2613/2712 00000KT P6SM SCT002 SCT050 FM261400 VRB04KT P6SM SCT050 OVC090 FM270600 VRB03KT P6SM BKN035
Issued Valid From Valid To
Apr-26 @ 12:47 UTC
(36 minutes ago)
Apr-26 @ 13:00 UTC
(23 minutes ago)
Apr-27 @ 12:00 UTC
(in 23 hours)
Apr-26 @ 13:00 to Apr-26 @ 14:00
KLOZ 261247Z 2613/2712 00000KT P6SM SCT002 SCT050
Visibility Clouds
Greater than 6 miles
  • Scattered at 200' AGL
  • Scattered at 5,000' AGL
From Apr-26 @ 14:00 to Apr-27 @ 06:00
FM261400 VRB04KT P6SM SCT050 OVC090
Wind Visibility Clouds
Variable at 4 knots Greater than 6 miles
  • Scattered at 5,000' AGL
  • Overcast at 9,000' AGL
From Apr-27 @ 06:00 to Apr-27 @ 12:00
FM270600 VRB03KT P6SM BKN035
Wind Visibility Clouds
Variable at 3 knots Greater than 6 miles
  • Broken at 3,500' AGL
KLOZ 261247Z 2613/2712 00000KT P6SM SCT002 SCT050 FM261400 VRB04KT P6SM SCT050 OVC090 FM270600 VRB03KT P6SM BKN035
Issued Apr-26 @ 12:47 UTC
(36 minutes ago)
Valid From Apr-26 @ 13:00 UTC
(23 minutes ago)
Valid To Apr-27 @ 12:00 UTC
(in 23 hours)
Apr-26 @ 13:00 - Apr-26 @ 14:00
Clouds
  • Scattered at 200' AGL
  • Scattered at 5,000' AGL
From Apr-26 @ 14:00 - Apr-27 @ 06:00
Wind Visibility
Variable at 4 knots Greater than 6 miles
Clouds
  • Scattered at 5,000' AGL
  • Overcast at 9,000' AGL
From Apr-27 @ 06:00 - Apr-27 @ 12:00
Wind Visibility
Variable at 3 knots Greater than 6 miles
Clouds
  • Broken at 3,500' AGL